Mount Hope, Ohio
Current Conditions -  °F | °C
As of 9:53 AM on Sunday 23 Nov 2014 (Local Time) from KPHD Reporting Station
Broken Clouds Broken Clouds  
Wind Chill: 52°   Ceiling: 9500
Heat Index: 52°   Visibility: 10mi
Dew Point: 33°   Wind: 5mph
Humidity: 49%   Direction: 130°SE
Pressure: 30.05"   Gusts: NA
Location:  40.62°N, 81.78°W
Report Text: KPHD 231453Z AUTO 13004KT 10SM FEW030 BKN095 11/01 A3005 RMK AO2 SLP178 T01110006 57007
Loading
Personal Weather Stations






























Interactive Weather Map New forecast layout! Learn more

10-Day Weather Forecast

Advertisements
Track Severe Weather on mobile